Time;durP1;ratioP1;P1;durP2;ratioP2;P2;SDS_P1;SDS_P2;PMS_P1;PMS_P2;Temp;Humidity;BMP_temperature;BMP_pressure;BME280_temperature;BME280_humidity;BME280_pressure;Samples;Min_cycle;Max_cycle;Signal;HPM_P1;HPM_P2
2022/01/19 00:01:48;;;;;;;38.72;19.23;;;;;;;0.48;100.00;103066.28;4960183;28;20451;-90
2022/01/19 00:04:13;;;;;;;38.20;18.77;;;;;;;0.56;100.00;103079.22;4958705;28;20456;-90
2022/01/19 00:06:42;;;;;;;34.53;18.67;;;;;;;0.56;100.00;103078.31;4959846;28;20035;-90
2022/01/19 00:09:07;;;;;;;36.63;18.67;;;;;;;0.67;100.00;103108.78;4959403;28;20086;-90
2022/01/19 00:11:33;;;;;;;35.33;17.90;;;;;;;0.22;100.00;103025.16;4959516;28;20435;-90
2022/01/19 00:14:02;;;;;;;34.10;18.45;;;;;;;0.64;100.00;103116.13;4959712;28;20039;-90
2022/01/19 00:16:27;;;;;;;38.38;18.52;;;;;;;0.38;100.00;103085.66;4959664;28;20057;-90
2022/01/19 00:18:53;;;;;;;34.55;18.42;;;;;;;0.38;100.00;103094.53;4975848;28;20452;-89
2022/01/19 00:21:19;;;;;;;40.10;19.33;;;;;;;0.25;100.00;103077.53;4959317;28;20038;-89
2022/01/19 00:23:44;;;;;;;39.92;20.17;;;;;;;0.36;100.00;103092.91;4959566;28;20157;-90
2022/01/19 00:26:13;;;;;;;36.95;19.80;;;;;;;0.28;100.00;103072.00;4975411;28;20042;-90
2022/01/19 00:28:39;;;;;;;34.60;18.75;;;;;;;0.19;100.00;103060.06;4975296;28;20051;-90
2022/01/19 00:31:05;;;;;;;42.00;20.02;;;;;;;0.06;100.00;103017.25;4959446;28;20031;-90
2022/01/19 00:33:31;;;;;;;39.55;20.02;;;;;;;0.01;100.00;102997.97;4959361;28;20142;-91
2022/01/19 00:36:00;;;;;;;34.33;19.17;;;;;;;0.02;100.00;102982.84;4959489;28;20031;-89
2022/01/19 00:38:25;;;;;;;32.97;17.40;;;;;;;0.21;100.00;103009.25;4942738;28;20039;-89
2022/01/19 00:40:50;;;;;;;36.15;19.70;;;;;;;0.24;100.00;102998.41;4959001;28;20368;-89
2022/01/19 00:43:17;;;;;;;34.97;18.92;;;;;;;0.11;100.00;102963.56;4958332;28;20034;-89
2022/01/19 00:45:44;;;;;;;34.90;18.38;;;;;;;0.14;100.00;102985.59;4975761;28;20043;-90
2022/01/19 00:48:09;;;;;;;39.58;18.48;;;;;;;-0.06;100.00;102969.94;4958486;28;20354;-89
2022/01/19 00:50:35;;;;;;;36.72;18.33;;;;;;;0.31;100.00;103039.75;4975791;28;20042;-89
2022/01/19 00:53:00;;;;;;;55.78;22.00;;;;;;;0.12;100.00;103008.03;4958511;28;20027;-89
2022/01/19 00:55:27;;;;;;;44.47;23.63;;;;;;;0.24;100.00;103028.63;4942240;28;20574;-89
2022/01/19 00:57:53;;;;;;;57.10;24.33;;;;;;;0.15;100.00;103010.50;4958323;28;20097;-89
2022/01/19 01:00:21;;;;;;;52.40;23.83;;;;;;;0.08;100.00;103012.66;4958109;28;20019;-89
2022/01/19 01:02:47;;;;;;;56.15;21.88;;;;;;;0.15;100.00;103034.53;4974267;28;20027;-89
2022/01/19 01:05:13;;;;;;;47.75;21.05;;;;;;;0.07;100.00;103024.28;4957982;28;20062;-88
2022/01/19 01:07:42;;;;;;;41.00;19.67;;;;;;;-0.08;100.00;102994.06;4974128;28;20423;-89
2022/01/19 01:10:11;;;;;;;52.30;21.23;;;;;;;-0.19;100.00;102976.03;4974426;28;20026;-89
2022/01/19 01:12:45;;;;;;;51.20;22.15;;;;;;;-0.23;100.00;102961.16;4958244;28;20439;-89
2022/01/19 01:20:31;;;;;;;56.13;20.92;;;;;;;-0.10;100.00;102965.75;4975358;28;20575;-89
2022/01/19 01:22:57;;;;;;;44.20;21.40;;;;;;;-0.02;100.00;102980.34;4957896;28;20023;-89
2022/01/19 01:25:23;;;;;;;49.95;22.42;;;;;;;0.09;100.00;102978.81;4941743;28;20369;-89
2022/01/19 01:27:49;;;;;;;47.25;21.90;;;;;;;0.10;100.00;102978.72;4941668;28;20176;-88
2022/01/19 01:30:15;;;;;;;58.53;21.38;;;;;;;0.10;100.00;102954.69;4973797;28;20045;-88
2022/01/19 01:32:43;;;;;;;38.70;21.60;;;;;;;0.16;100.00;102957.00;4975071;28;20026;-88
2022/01/19 01:35:26;;;;;;;37.38;21.58;;;;;;;-0.29;100.00;102875.31;4957022;28;20027;-89
2022/01/19 01:37:52;;;;;;;44.92;21.67;;;;;;;0.16;100.00;102934.78;4942412;28;20423;-88
2022/01/19 01:40:18;;;;;;;41.47;22.50;;;;;;;-0.22;100.00;102858.81;4957375;28;20038;-89
2022/01/19 01:42:45;;;;;;;43.13;22.83;;;;;;;-0.23;100.00;102845.56;4957453;28;20046;-89
2022/01/19 01:45:14;;;;;;;41.60;23.58;;;;;;;0.20;100.00;102911.44;4957607;28;20026;-88
2022/01/19 01:47:48;;;;;;;43.17;23.63;;;;;;;0.02;100.00;102884.09;4957101;28;20038;-89
2022/01/19 01:55:28;;;;;;;43.88;25.60;;;;;;;-0.29;100.00;102849.47;4955735;28;20499;-89
2022/01/19 01:58:04;;;;;;;44.85;24.70;;;;;;;0.07;100.00;102920.19;4957616;28;20066;-90
2022/01/19 02:00:29;;;;;;;40.40;24.33;;;;;;;-0.41;100.00;102858.25;4974370;28;20042;-90
2022/01/19 02:02:58;;;;;;;45.63;24.83;;;;;;;-0.44;100.00;102853.09;4957863;28;20403;-90
2022/01/19 02:05:23;;;;;;;44.78;25.20;;;;;;;-0.20;100.00;102886.25;4949580;28;20043;-89
2022/01/19 02:08:09;;;;;;;51.35;26.52;;;;;;;-0.23;100.00;102874.94;4965623;28;20031;-90
2022/01/19 02:24:12;;;;;;;49.20;25.10;;;;;;;-0.74;100.00;102814.00;4973643;28;20035;-90
2022/01/19 02:26:58;;;;;;;42.10;24.42;;;;;;;-0.64;100.00;102839.16;4974155;28;20035;-90
2022/01/19 02:40:30;;;;;;;50.03;26.25;;;;;;;-0.55;100.00;102781.75;4974633;28;20049;-89
2022/01/19 02:50:42;;;;;;;46.47;25.02;;;;;;;-0.89;100.00;102726.03;4973303;28;20062;-89
2022/01/19 02:53:11;;;;;;;46.38;24.50;;;;;;;-0.78;100.00;102749.38;4940801;28;20440;-89
2022/01/19 02:55:40;;;;;;;45.35;24.73;;;;;;;-0.56;100.00;102796.00;4956454;28;20038;-89
2022/01/19 02:58:06;;;;;;;44.15;23.00;;;;;;;-0.72;100.00;102786.31;4972743;28;20035;-89
2022/01/19 03:08:43;;;;;;;45.35;23.90;;;;;;;-0.76;100.00;102758.13;4973303;28;20089;-89
2022/01/19 03:09:04;;;;;;;48.28;25.58;;;;;;;-0.82;100.00;102742.50;4961161;28;20039;-89
2022/01/19 03:11:29;;;;;;;48.67;25.05;;;;;;;-1.07;100.00;102716.50;4940171;28;20411;-89
2022/01/19 03:13:55;;;;;;;93.35;26.40;;;;;;;-0.78;100.00;102760.03;4972543;28;20031;-89
2022/01/19 03:16:22;;;;;;;46.65;25.33;;;;;;;-1.19;100.00;102698.59;4956557;28;20023;-89
2022/01/19 03:18:50;;;;;;;51.60;26.13;;;;;;;-1.20;100.00;102692.41;4973538;28;20082;-89
2022/01/19 03:21:19;;;;;;;46.90;26.75;;;;;;;-0.91;100.00;102740.41;4956763;28;20455;-89
2022/01/19 03:23:45;;;;;;;55.15;28.50;;;;;;;-1.20;100.00;102688.88;4972624;28;20539;-89
2022/01/19 03:26:11;;;;;;;57.17;28.10;;;;;;;-0.94;100.00;102722.78;4956324;28;20077;-89
2022/01/19 03:28:36;;;;;;;53.03;27.42;;;;;;;-1.15;100.00;102681.47;4956092;28;20047;-89
2022/01/19 03:31:04;;;;;;;53.17;25.38;;;;;;;-1.01;100.00;102717.94;4944235;28;20053;-89
2022/01/19 03:33:30;;;;;;;50.97;25.65;;;;;;;-1.18;100.00;102682.53;4976141;28;20049;-89
2022/01/19 03:35:55;;;;;;;49.47;25.85;;;;;;;-0.86;100.00;102726.78;4960253;28;20023;-89
2022/01/19 03:38:21;;;;;;;57.88;28.35;;;;;;;-1.03;100.00;102677.19;4960001;28;20414;-89
2022/01/19 03:40:48;;;;;;;59.20;28.45;;;;;;;-0.98;100.00;102675.13;4959944;28;20082;-89
2022/01/19 03:43:14;;;;;;;60.25;29.15;;;;;;;-0.82;100.00;102699.00;4960205;28;20117;-88
2022/01/19 03:45:39;;;;;;;63.47;29.75;;;;;;;-0.92;100.00;102664.06;4959937;28;20062;-90
2022/01/19 03:48:33;;;;;;;63.72;30.25;;;;;;;-0.87;100.00;102667.31;4944383;28;20039;-90
2022/01/19 03:50:59;;;;;;;58.53;30.33;;;;;;;-0.81;100.00;102664.25;4960092;28;20066;-89
2022/01/19 03:53:26;;;;;;;66.50;31.65;;;;;;;-0.98;100.00;102630.66;4976134;28;20074;-89
2022/01/19 03:55:54;;;;;;;63.20;31.73;;;;;;;-0.76;100.00;102655.97;4943200;28;20031;-89
2022/01/19 03:58:20;;;;;;;63.83;31.08;;;;;;;-0.75;100.00;102655.03;4959643;28;20039;-89
2022/01/19 04:00:46;;;;;;;69.20;30.45;;;;;;;-1.06;100.00;102603.66;4959523;28;20027;-89
2022/01/19 04:03:19;;;;;;;71.63;32.13;;;;;;;-0.84;100.00;102645.81;4943637;28;20035;-89
2022/01/19 04:08:19;;;;;;;68.18;31.98;;;;;;;-0.96;100.00;102627.91;4976933;28;20129;-89
2022/01/19 04:10:45;;;;;;;72.75;32.78;;;;;;;-0.83;100.00;102642.16;4959523;28;20177;-89
2022/01/19 04:13:30;;;;;;;75.72;32.55;;;;;;;-0.85;100.00;102644.06;4943130;28;20069;-89
2022/01/19 04:15:55;;;;;;;81.28;34.55;;;;;;;-0.78;100.00;102653.41;4945917;28;20505;-89
2022/01/19 04:18:21;;;;;;;77.00;33.70;;;;;;;-0.66;100.00;102666.94;4959211;28;20109;-89
2022/01/19 04:20:51;;;;;;;68.53;32.85;;;;;;;-0.99;100.00;102591.66;4958799;28;20494;-89
2022/01/19 04:23:19;;;;;;;72.22;32.38;;;;;;;-0.62;100.00;102655.97;4959431;28;20089;-89
2022/01/19 04:25:45;;;;;;;77.57;34.25;;;;;;;-0.65;100.00;102642.84;4959218;28;20139;-89
2022/01/19 04:28:10;;;;;;;80.63;35.30;;;;;;;-0.60;100.00;102656.72;4958913;28;20137;-89
2022/01/19 04:30:36;;;;;;;76.57;35.53;;;;;;;-0.72;100.00;102625.50;4958590;28;20035;-89
2022/01/19 04:33:08;;;;;;;86.75;35.47;;;;;;;-0.54;100.00;102658.13;4958952;28;20062;-89
2022/01/19 04:35:45;;;;;;;79.65;35.72;;;;;;;-0.74;100.00;102638.06;4974735;28;20037;-89
2022/01/19 05:15:23;;;;;;;97.15;38.63;;;;;;;-0.59;100.00;102620.22;4975117;28;20546;-90
2022/01/19 05:17:53;;;;;;;94.68;36.17;;;;;;;-0.88;100.00;102581.16;4958418;28;20030;-89
2022/01/19 05:20:21;;;;;;;92.55;37.63;;;;;;;-0.85;100.00;102584.59;4974251;28;20037;-89
2022/01/19 05:22:47;;;;;;;93.10;39.65;;;;;;;-0.64;100.00;102617.00;4957764;28;20026;-89
2022/01/19 05:25:12;;;;;;;88.53;38.42;;;;;;;-0.90;100.00;102575.09;4958642;28;20428;-89
2022/01/19 05:27:38;;;;;;;76.25;33.47;;;;;;;-0.59;100.00;102622.88;4942022;28;20027;-89
2022/01/19 05:30:04;;;;;;;88.35;37.15;;;;;;;-0.88;100.00;102589.16;4957914;28;20605;-89
2022/01/19 05:32:29;;;;;;;83.15;36.88;;;;;;;-0.72;100.00;102614.84;4973579;28;20100;-89
2022/01/19 05:34:58;;;;;;;81.63;37.80;;;;;;;-0.81;100.00;102594.09;4957796;28;20037;-89
2022/01/19 05:37:23;;;;;;;83.20;38.83;;;;;;;-0.41;100.00;102647.53;4957749;28;20022;-89
2022/01/19 05:39:48;;;;;;;83.75;36.35;;;;;;;-0.37;100.00;102641.91;4957895;28;20027;-89
2022/01/19 05:42:14;;;;;;;88.13;38.90;;;;;;;-0.45;100.00;102614.88;4957643;28;20546;-89
2022/01/19 05:44:45;;;;;;;82.57;37.33;;;;;;;-0.41;100.00;102612.88;4957343;28;20029;-89
2022/01/19 05:47:12;;;;;;;74.72;36.40;;;;;;;-0.60;100.00;102575.88;4973460;28;20030;-89
2022/01/19 05:49:43;;;;;;;71.72;34.30;;;;;;;-0.45;100.00;102590.88;4957517;28;20026;-89
2022/01/19 05:52:10;;;;;;;71.78;36.22;;;;;;;-0.12;100.00;102636.75;4972687;28;20030;-89
2022/01/19 05:54:43;;;;;;;69.25;34.30;;;;;;;-0.27;100.00;102604.78;4957536;28;20039;-89
2022/01/19 05:57:15;;;;;;;70.85;33.30;;;;;;;-0.28;100.00;102589.75;4941174;28;20058;-90
2022/01/19 05:59:40;;;;;;;67.57;33.97;;;;;;;-0.17;100.00;102602.38;4957691;28;20114;-89
2022/01/19 06:02:06;;;;;;;64.07;33.63;;;;;;;-0.17;100.00;102606.88;4957327;28;20442;-89
2022/01/19 06:04:31;;;;;;;64.18;33.55;;;;;;;-0.24;100.00;102588.59;4957178;28;20213;-89
2022/01/19 06:06:57;;;;;;;64.88;32.08;;;;;;;-0.11;100.00;102606.47;4957156;28;20034;-89
2022/01/19 06:12:26;;;;;;;61.00;32.83;;;;;;;0.12;100.00;102620.94;4951711;28;20042;-89
2022/01/19 06:14:51;;;;;;;59.53;33.00;;;;;;;0.13;100.00;102618.16;4956500;28;20030;-89
2022/01/19 06:17:19;;;;;;;64.47;33.15;;;;;;;0.16;100.00;102615.28;4956751;28;20031;-89
2022/01/19 06:19:48;;;;;;;61.25;32.58;;;;;;;-0.02;100.00;102580.00;4956785;28;20031;-89
2022/01/19 06:22:17;;;;;;;59.90;31.67;;;;;;;-0.18;100.00;102547.31;4941145;28;20031;-94
2022/01/19 06:24:44;;;;;;;57.75;31.98;;;;;;;-0.13;100.00;102539.84;4957503;28;20398;-91
2022/01/19 06:27:11;;;;;;;55.40;32.10;;;;;;;0.26;100.00;102612.00;4957551;28;20041;-91
2022/01/19 06:29:37;;;;;;;55.83;31.10;;;;;;;0.12;100.00;102579.09;4957100;28;20116;-92
2022/01/19 06:32:03;;;;;;;56.88;32.95;;;;;;;0.26;100.00;102594.16;4957434;28;20047;-87
2022/01/19 06:34:28;;;;;;;55.10;31.60;;;;;;;0.19;100.00;102576.84;4957817;28;20138;-91
2022/01/19 06:36:55;;;;;;;53.65;31.38;;;;;;;-0.02;100.00;102537.28;4957552;28;20178;-90
2022/01/19 06:39:24;;;;;;;56.38;30.15;;;;;;;0.22;100.00;102563.28;4941187;28;20043;-91
2022/01/19 06:41:49;;;;;;;53.85;30.13;;;;;;;0.32;100.00;102572.34;4942138;28;20065;-91
2022/01/19 06:44:16;;;;;;;54.17;30.35;;;;;;;0.26;100.00;102553.25;4958216;28;20479;-91
2022/01/19 06:47:02;;;;;;;52.10;30.27;;;;;;;0.16;100.00;102531.66;4973685;28;20031;-90
2022/01/19 06:49:31;;;;;;;52.30;28.17;;;;;;;0.19;100.00;102534.13;4973673;28;20074;-90
2022/01/19 06:51:56;;;;;;;52.75;28.88;;;;;;;0.36;100.00;102551.66;4941287;28;20030;-90
2022/01/19 06:54:24;;;;;;;54.90;30.38;;;;;;;0.34;100.00;102543.75;4957189;28;20364;-91
2022/01/19 06:56:50;;;;;;;49.50;28.73;;;;;;;0.07;100.00;102494.94;4941572;28;20388;-89
2022/01/19 06:59:16;;;;;;;51.40;30.52;;;;;;;0.28;100.00;102522.81;4973613;28;20042;-90
2022/01/19 07:01:41;;;;;;;52.72;28.95;;;;;;;0.12;100.00;102485.66;4973837;28;20034;-91
2022/01/19 07:04:07;;;;;;;55.03;29.25;;;;;;;0.14;100.00;102482.88;4960342;28;20035;-91
2022/01/19 07:06:32;;;;;;;50.95;29.58;;;;;;;0.30;100.00;102494.19;4945304;28;20035;-91
2022/01/19 07:08:58;;;;;;;49.78;28.88;;;;;;;0.57;100.00;102549.28;4977244;28;20062;-91
2022/01/19 07:11:24;;;;;;;51.50;28.80;;;;;;;0.50;100.00;102532.84;4961133;28;20027;-90
2022/01/19 07:13:49;;;;;;;48.05;28.58;;;;;;;0.25;100.00;102491.00;4945110;28;20655;-91
2022/01/19 07:16:16;;;;;;;50.78;28.48;;;;;;;0.62;100.00;102538.28;4960921;28;20081;-91
2022/01/19 07:18:42;;;;;;;49.88;28.52;;;;;;;0.51;100.00;102517.69;4977655;28;20038;-91
2022/01/19 07:21:11;;;;;;;44.03;27.92;;;;;;;0.65;100.00;102543.41;4977432;28;20557;-91
2022/01/19 07:23:36;;;;;;;50.85;28.30;;;;;;;0.30;100.00;102478.16;4961934;28;20042;-91
2022/01/19 07:26:02;;;;;;;45.00;27.77;;;;;;;0.47;100.00;102497.47;4946058;28;20042;-89
2022/01/19 07:28:32;;;;;;;45.30;27.58;;;;;;;0.39;100.00;102474.00;4968067;28;20082;-89
2022/01/19 07:30:57;;;;;;;48.25;27.52;;;;;;;0.72;100.00;102519.78;4941940;29;20039;-90
2022/01/19 07:33:23;;;;;;;49.70;28.88;;;;;;;0.66;100.00;102508.56;4941834;29;20031;-90
2022/01/19 07:35:52;;;;;;;42.85;26.80;;;;;;;0.59;100.00;102490.41;4941182;29;20067;-90
2022/01/19 07:38:26;;;;;;;50.03;27.95;;;;;;;0.82;100.00;102529.69;4941101;29;20039;-89
2022/01/19 07:40:52;;;;;;;40.03;24.83;;;;;;;0.89;100.00;102524.78;4958366;29;20035;-89
2022/01/19 07:43:17;;;;;;;47.72;27.10;;;;;;;0.50;100.00;102468.75;4941061;29;20042;-89
2022/01/19 07:45:46;;;;;;;43.50;26.77;;;;;;;0.83;100.00;102510.03;4941085;29;20492;-90
2022/01/19 07:48:12;;;;;;;43.47;26.67;;;;;;;0.81;100.00;102493.28;4957205;28;20034;-89
2022/01/19 07:50:39;;;;;;;45.17;26.88;;;;;;;0.56;100.00;102459.47;4940745;29;20035;-89
2022/01/19 07:53:09;;;;;;;43.90;27.25;;;;;;;0.79;100.00;102481.81;4957177;28;20035;-91
2022/01/19 07:55:34;;;;;;;43.50;26.67;;;;;;;0.84;100.00;102484.16;4957639;28;20023;-91
2022/01/19 07:58:03;;;;;;;42.53;26.02;;;;;;;0.82;100.00;102488.78;4941895;29;20023;-91
2022/01/19 08:00:33;;;;;;;44.05;26.20;;;;;;;0.65;100.00;102456.13;4960978;28;20031;-91
2022/01/19 08:03:02;;;;;;;42.53;25.85;;;;;;;1.04;100.00;102518.31;4964757;29;20094;-89
2022/01/19 08:05:27;;;;;;;41.13;26.02;;;;;;;0.92;100.00;102495.16;4943094;29;20031;-90
2022/01/19 08:07:53;;;;;;;40.97;25.98;;;;;;;0.94;100.00;102487.03;4957291;28;20035;-89
2022/01/19 08:10:18;;;;;;;41.67;25.88;;;;;;;1.00;100.00;102482.06;4957144;28;20042;-89
2022/01/19 08:12:44;;;;;;;40.80;26.42;;;;;;;0.72;100.00;102444.97;4941074;29;20038;-90
2022/01/19 08:15:10;;;;;;;39.97;25.63;;;;;;;0.75;100.00;102452.78;4939975;29;20109;-89
2022/01/19 08:17:36;;;;;;;43.22;27.55;;;;;;;0.94;100.00;102471.81;4956867;28;20090;-89
2022/01/19 08:20:06;;;;;;;43.35;27.70;;;;;;;0.79;100.00;102438.22;4956860;28;20050;-89
2022/01/19 08:22:31;;;;;;;45.60;27.92;;;;;;;0.81;100.00;102438.94;4940648;29;20090;-89
2022/01/19 08:24:57;;;;;;;40.95;26.92;;;;;;;0.82;100.00;102425.47;4940646;29;20460;-89
2022/01/19 08:27:22;;;;;;;45.70;27.55;;;;;;;0.83;100.00;102426.34;4940487;28;20038;-89
2022/01/19 08:29:48;;;;;;;42.75;26.48;;;;;;;0.84;100.00;102426.25;4944606;28;20034;-89
2022/01/19 08:32:18;;;;;;;41.85;26.80;;;;;;;1.10;100.00;102465.38;4961987;28;20391;-89
2022/01/19 08:34:43;;;;;;;43.08;26.67;;;;;;;1.27;100.00;102486.38;4963967;28;20030;-89
2022/01/19 08:37:15;;;;;;;41.55;26.42;;;;;;;1.11;100.00;102459.91;4965314;28;20145;-88
2022/01/19 08:39:42;;;;;;;41.35;26.70;;;;;;;0.93;100.00;102416.69;4964260;28;20030;-89
2022/01/19 08:42:08;;;;;;;41.53;25.92;;;;;;;0.98;100.00;102425.22;4964729;28;20123;-90
2022/01/19 08:44:34;;;;;;;41.97;25.23;;;;;;;1.00;100.00;102422.41;4982044;28;20038;-89
2022/01/19 08:46:59;;;;;;;40.05;26.38;;;;;;;0.97;100.00;102411.97;4964896;28;20561;-89
2022/01/19 08:49:25;;;;;;;40.20;26.75;;;;;;;1.04;100.00;102411.38;4949156;28;20034;-89
2022/01/19 08:51:51;;;;;;;40.67;25.92;;;;;;;1.29;100.00;102446.16;4963557;28;20062;-89
2022/01/19 08:54:19;;;;;;;38.33;24.23;;;;;;;1.19;100.00;102430.75;4962874;28;20049;-89
2022/01/19 08:56:45;;;;;;;39.80;25.50;;;;;;;1.08;100.00;102392.44;4981144;28;20034;-89
2022/01/19 08:59:14;;;;;;;37.95;25.05;;;;;;;1.35;100.00;102429.63;4948274;28;20038;-89
2022/01/19 09:01:42;;;;;;;40.63;25.58;;;;;;;1.48;100.00;102454.47;4963068;28;20109;-89
2022/01/19 09:04:08;;;;;;;34.42;24.27;;;;;;;1.41;100.00;102431.84;4964664;28;20023;-90
2022/01/19 09:06:33;;;;;;;36.97;24.75;;;;;;;1.36;100.00;102417.97;4964973;28;20042;-89
2022/01/19 09:09:04;;;;;;;39.67;25.33;;;;;;;1.58;100.00;102441.25;4946504;28;20113;-90
2022/01/19 09:11:31;;;;;;;39.33;25.05;;;;;;;1.29;100.00;102380.13;4975817;28;20034;-89
2022/01/19 09:14:01;;;;;;;38.85;25.08;;;;;;;1.50;100.00;102412.41;4943057;28;20035;-88
2022/01/19 09:16:29;;;;;;;34.83;23.27;;;;;;;1.67;100.00;102442.34;4957888;28;20391;-88
2022/01/19 09:18:58;;;;;;;37.03;24.90;;;;;;;1.68;100.00;102442.25;4942541;28;20133;-89
2022/01/19 09:21:24;;;;;;;36.67;24.85;;;;;;;1.58;100.00;102420.69;4958738;28;20111;-89
2022/01/19 09:23:50;;;;;;;36.45;24.63;;;;;;;1.36;100.00;102376.03;4958900;28;20043;-89
2022/01/19 09:26:16;;;;;;;35.10;24.70;;;;;;;1.36;100.00;102375.19;4941779;28;20070;-89
2022/01/19 09:28:41;;;;;;;36.30;24.85;;;;;;;1.66;100.00;102421.94;4958675;28;20074;-89
2022/01/19 09:31:11;;;;;;;36.38;24.65;;;;;;;1.54;100.00;102396.97;4958839;28;20404;-90
2022/01/19 09:33:37;;;;;;;35.05;23.13;;;;;;;1.56;100.00;102387.84;4958658;28;20399;-89
2022/01/19 09:36:28;;;;;;;38.65;25.23;;;;;;;1.77;100.00;102421.94;4958301;28;20451;-89
2022/01/19 09:38:51;;;;;;;36.25;23.65;;;;;;;1.89;100.00;102426.38;4960518;28;20062;-88
2022/01/19 09:41:19;;;;;;;37.05;23.42;;;;;;;1.74;100.00;102400.78;4974410;28;20372;-88
2022/01/19 09:43:48;;;;;;;37.00;24.23;;;;;;;1.50;100.00;102356.22;4974214;28;20034;-89
2022/01/19 09:46:13;;;;;;;35.65;24.63;;;;;;;1.56;100.00;102358.41;4958229;28;20054;-89
2022/01/19 09:48:42;;;;;;;37.47;24.75;;;;;;;1.77;100.00;102376.44;4957777;28;20053;-89
2022/01/19 09:51:07;;;;;;;35.00;24.30;;;;;;;1.83;100.00;102373.31;4958060;28;20054;-89
2022/01/19 09:53:33;;;;;;;36.55;24.33;;;;;;;1.60;100.00;102323.44;4957913;28;20066;-89
2022/01/19 09:55:59;;;;;;;35.30;24.05;;;;;;;1.60;100.00;102318.91;4957646;28;20023;-90
2022/01/19 09:58:25;;;;;;;36.92;24.30;;;;;;;1.97;100.00;102366.03;4957757;28;20035;-89
2022/01/19 10:00:52;;;;;;;34.47;23.35;;;;;;;2.08;100.00;102382.94;4957453;28;20376;-89
2022/01/19 10:03:23;;;;;;;35.30;23.08;;;;;;;1.69;100.00;102312.84;4958039;28;20419;-89
2022/01/19 10:06:09;;;;;;;34.00;23.13;;;;;;;1.94;100.00;102332.31;4974296;28;20030;-89
2022/01/19 10:08:38;;;;;;;34.97;23.52;;;;;;;1.97;100.00;102344.59;4957841;28;20042;-89
2022/01/19 10:11:15;;;;;;;33.28;23.45;;;;;;;2.22;100.00;102372.94;4973997;28;20038;-89
2022/01/19 10:16:59;;;;;;;34.95;24.00;;;;;;;1.98;100.00;102320.38;4974831;28;20042;-89
2022/01/19 10:19:29;;;;;;;;;;;;;;;2.33;100.00;102356.00;4956678;28;20188;-89
2022/01/19 10:22:00;;;;;;;35.28;22.90;;;;;;;1.92;100.00;102302.16;4957086;28;20326;-89
2022/01/19 10:24:48;;;;;;;36.72;23.13;;;;;;;2.11;100.00;102322.91;4973399;28;20081;-89
2022/01/19 10:27:32;;;;;;;36.13;23.42;;;;;;;2.39;100.00;102361.72;4957502;28;20039;-89
2022/01/19 10:30:04;;;;;;;33.33;23.48;;;;;;;2.34;100.00;102349.69;4956693;28;20056;-89
2022/01/19 10:32:50;;;;;;;33.90;22.65;;;;;;;2.35;100.00;102337.97;4957391;28;20031;-93
2022/01/19 10:35:29;;;;;;;32.38;22.10;;;;;;;2.56;100.00;102356.81;4973040;28;20038;-90
2022/01/19 10:38:14;;;;;;;33.00;22.33;;;;;;;2.42;100.00;102329.31;4956048;28;20085;-90
2022/01/19 10:41:03;;;;;;;35.80;22.08;;;;;;;2.52;100.00;102309.81;4973816;28;20383;-89
2022/01/19 10:43:43;;;;;;;33.05;22.65;;;;;;;2.37;100.00;102269.06;4957619;28;20089;-89
2022/01/19 10:46:34;;;;;;;30.25;21.60;;;;;;;2.71;100.00;102327.91;4973706;28;20097;-90
2022/01/19 10:49:08;;;;;;;32.33;21.25;;;;;;;2.73;100.00;102325.94;4973539;28;20027;-89
2022/01/19 10:51:44;;;;;;;33.42;21.65;;;;;;;2.39;100.00;102248.34;4957175;28;20031;-89
2022/01/19 10:54:15;;;;;;;30.85;21.20;;;;;;;2.33;100.00;102270.28;4973176;28;20041;-90
2022/01/19 10:56:45;;;;;;;31.33;21.40;;;;;;;2.36;100.00;102275.38;4973849;28;20430;-89
2022/01/19 10:59:16;;;;;;;31.80;21.75;;;;;;;2.50;100.00;102298.38;4957565;28;20038;-89
2022/01/19 11:02:01;;;;;;;32.60;21.55;;;;;;;2.62;100.00;102308.06;4958463;28;20039;-89
2022/01/19 11:04:33;;;;;;;32.00;22.55;;;;;;;2.53;100.00;102268.66;4974408;28;20062;-89
2022/01/19 11:07:12;;;;;;;35.03;23.88;;;;;;;2.38;100.00;102252.84;4958180;28;20459;-87
2022/01/19 11:09:56;;;;;;;30.95;21.02;;;;;;;2.42;100.00;102245.41;4957142;28;20045;-89
2022/01/19 11:12:32;;;;;;;33.55;22.75;;;;;;;2.37;100.00;102240.44;4973749;28;20030;-89
2022/01/19 11:14:59;;;;;;;32.97;22.67;;;;;;;2.42;100.00;102237.38;4957148;28;20079;-89
2022/01/19 11:17:24;;;;;;;34.80;23.15;;;;;;;2.65;100.00;102281.00;4957055;28;20456;-90
2022/01/19 11:19:58;;;;;;;32.58;22.38;;;;;;;2.39;100.00;102226.91;4955230;28;20157;-90
2022/01/19 11:22:52;;;;;;;36.08;23.90;;;;;;;2.87;100.00;102269.34;4972605;28;20425;-89
2022/01/19 11:26:18;;;;;;;33.97;23.60;;;;;;;2.73;100.00;102258.91;4955940;28;20058;-90
2022/01/19 11:28:49;;;;;;;33.78;23.50;;;;;;;2.80;100.00;102268.16;4891000;29;20049;-91
2022/01/19 11:31:24;;;;;;;34.03;24.58;;;;;;;2.80;100.00;102273.50;4956290;28;20042;-90
2022/01/19 11:33:52;;;;;;;35.03;24.10;;;;;;;2.42;100.00;102200.75;4957006;28;20039;-89
2022/01/19 11:36:25;;;;;;;34.85;23.90;;;;;;;2.68;100.00;102224.47;4973432;28;20035;-90
2022/01/19 11:39:03;;;;;;;36.42;24.40;;;;;;;2.49;100.00;102176.09;4973273;28;20034;-90
2022/01/19 11:41:37;;;;;;;34.08;24.52;;;;;;;2.78;100.00;102221.88;4972772;28;20403;-89
2022/01/19 11:44:04;;;;;;;35.50;24.50;;;;;;;2.69;100.00;102215.47;4957182;28;20102;-90
2022/01/19 11:46:39;;;;;;;34.58;25.08;;;;;;;2.62;100.00;102196.34;4956810;28;20463;-90
2022/01/19 11:49:11;;;;;;;35.83;24.80;;;;;;;2.88;100.00;102224.59;4972801;28;20041;-90
2022/01/19 11:51:39;;;;;;;34.65;23.80;;;;;;;2.90;100.00;102218.13;4960145;28;20031;-91
2022/01/19 11:54:35;;;;;;;36.25;24.90;;;;;;;2.73;100.00;102191.91;4960179;28;20402;-90
2022/01/19 11:57:05;;;;;;;38.40;26.20;;;;;;;2.88;100.00;102212.06;4960717;28;20038;-90
2022/01/19 11:59:46;;;;;;;38.38;26.70;;;;;;;2.89;100.00;102208.38;4959533;28;20443;-87
2022/01/19 12:02:23;;;;;;;40.95;26.13;;;;;;;2.80;100.00;102198.44;4975965;28;20059;-87
2022/01/19 12:04:54;;;;;;;40.67;27.17;;;;;;;2.57;100.00;102150.34;4958866;28;20046;-88
2022/01/19 12:07:36;;;;;;;39.75;27.20;;;;;;;2.89;100.00;102183.41;4976513;28;20062;-87
2022/01/19 12:10:04;;;;;;;38.53;26.40;;;;;;;2.90;100.00;102190.47;4942743;28;20383;-88
2022/01/19 12:12:35;;;;;;;40.53;28.15;;;;;;;2.72;100.00;102166.13;4975987;28;20027;-88
2022/01/19 12:15:06;;;;;;;42.05;28.67;;;;;;;2.68;100.00;102159.31;4943543;28;20550;-87
2022/01/19 12:18:09;;;;;;;43.20;29.40;;;;;;;2.78;100.00;102153.03;4957948;28;20436;-87
2022/01/19 12:20:52;;;;;;;40.67;28.98;;;;;;;2.84;100.00;102151.66;4915330;29;20190;-87
2022/01/19 12:23:28;;;;;;;42.05;30.08;;;;;;;3.03;100.00;102164.31;4960743;28;20031;-88
2022/01/19 12:25:56;;;;;;;44.17;30.73;;;;;;;3.01;100.00;102136.75;4958641;28;20030;-88
2022/01/19 12:28:38;;;;;;;44.50;31.08;;;;;;;2.89;100.00;102094.94;4940998;28;20051;-88
2022/01/19 12:31:22;;;;;;;44.22;30.25;;;;;;;3.27;100.00;102142.53;4955306;28;20575;-88
2022/01/19 12:34:03;;;;;;;44.95;30.95;;;;;;;3.26;99.94;102143.53;4955229;28;20034;-88
2022/01/19 12:36:51;;;;;;;40.67;29.10;;;;;;;3.28;100.00;102149.59;4954807;29;20039;-88
2022/01/19 12:39:25;;;;;;;43.83;30.83;;;;;;;3.37;99.70;102155.16;4955102;29;20394;-87
2022/01/19 12:42:18;;;;;;;42.55;30.40;;;;;;;3.10;99.67;102114.53;4955081;28;20031;-87
2022/01/19 12:44:50;;;;;;;45.00;32.03;;;;;;;3.16;99.54;102116.66;4956388;29;20031;-88
2022/01/19 12:47:27;;;;;;;43.88;31.83;;;;;;;3.40;99.14;102134.25;4938689;29;20043;-88
2022/01/19 12:50:08;;;;;;;43.65;32.22;;;;;;;3.39;99.22;102112.91;4954841;29;20468;-87
2022/01/19 12:52:41;;;;;;;41.20;29.25;;;;;;;3.46;99.35;102111.38;4954487;29;20214;-87
2022/01/19 12:55:21;;;;;;;46.03;32.70;;;;;;;3.54;99.19;102100.78;4976448;28;20037;-87